Time;durP1;ratioP1;P1;durP2;ratioP2;P2;SDS_P1;SDS_P2;PMS_P1;PMS_P2;Temp;Humidity;BMP_temperature;BMP_pressure;BME280_temperature;BME280_humidity;BME280_pressure;Samples;Min_cycle;Max_cycle;Signal;HPM_P1;HPM_P2
2021/03/13 00:00:52;;;;;;;6.62;4.18;;;-11.20;76.00;;;;;;4352019;32;20066;-60
2021/03/13 00:03:18;;;;;;;5.70;3.83;;;-11.30;75.10;;;;;;4346491;32;20065;-61
2021/03/13 00:05:46;;;;;;;7.75;4.50;;;-11.20;75.30;;;;;;4352492;32;20085;-60
2021/03/13 00:08:12;;;;;;;5.12;2.33;;;-11.30;75.60;;;;;;4340551;32;20156;-60
2021/03/13 00:10:40;;;;;;;8.45;4.05;;;-11.30;75.80;;;;;;4340228;32;20592;-59
2021/03/13 00:13:07;;;;;;;6.15;3.85;;;-11.20;75.90;;;;;;4340411;32;20074;-59
2021/03/13 00:15:33;;;;;;;7.35;3.83;;;-11.30;75.80;;;;;;4327636;32;20066;-59
2021/03/13 00:18:01;;;;;;;5.90;3.92;;;-11.20;75.90;;;;;;4339493;32;20522;-59
2021/03/13 00:20:29;;;;;;;6.47;3.78;;;-11.20;75.90;;;;;;4340240;32;20600;-60
2021/03/13 00:22:56;;;;;;;6.12;3.95;;;-11.20;76.00;;;;;;4327927;32;20085;-61
2021/03/13 00:25:24;;;;;;;6.25;3.50;;;-11.30;76.30;;;;;;4341641;32;20070;-59
2021/03/13 00:27:51;;;;;;;6.40;3.85;;;-11.30;76.20;;;;;;4349995;32;20144;-59
2021/03/13 00:30:31;;;;;;;6.00;3.50;;;-11.30;76.40;;;;;;4337046;32;20140;-60
2021/03/13 00:32:58;;;;;;;6.35;3.92;;;-11.40;76.70;;;;;;4328229;32;20078;-59
2021/03/13 00:35:25;;;;;;;6.87;3.90;;;-11.40;76.60;;;;;;4342147;32;20057;-60
2021/03/13 00:37:52;;;;;;;7.28;4.07;;;-11.30;76.70;;;;;;4341215;32;20094;-60
2021/03/13 00:40:21;;;;;;;7.43;4.00;;;-11.40;76.70;;;;;;4331215;32;20076;-59
2021/03/13 00:42:48;;;;;;;6.75;4.20;;;-11.40;76.90;;;;;;4329310;32;20082;-59
2021/03/13 00:45:17;;;;;;;5.90;3.92;;;-11.40;77.20;;;;;;4315820;32;20453;-60
2021/03/13 00:47:43;;;;;;;7.78;4.62;;;-11.40;77.60;;;;;;4323964;32;20070;-60
2021/03/13 00:50:11;;;;;;;5.22;3.83;;;-11.40;77.90;;;;;;4332770;32;20063;-59
2021/03/13 00:52:37;;;;;;;6.12;3.65;;;-11.40;77.90;;;;;;4322802;32;20075;-58
2021/03/13 00:55:05;;;;;;;5.85;3.35;;;-11.40;77.90;;;;;;4349731;32;20086;-59
2021/03/13 00:57:31;;;;;;;7.57;4.00;;;-11.40;78.20;;;;;;4327316;32;20073;-59
2021/03/13 00:59:57;;;;;;;6.57;3.78;;;-11.40;78.50;;;;;;4350563;32;20155;-60
2021/03/13 01:02:24;;;;;;;5.57;3.42;;;-11.40;78.60;;;;;;4351668;32;20077;-59
2021/03/13 01:04:50;;;;;;;4.95;3.25;;;-11.40;78.70;;;;;;4351548;32;20074;-59
2021/03/13 01:07:16;;;;;;;5.32;3.33;;;-11.40;78.70;;;;;;4364543;32;20140;-59
2021/03/13 01:09:42;;;;;;;7.10;4.18;;;-11.50;78.90;;;;;;4339693;32;20090;-60
2021/03/13 01:12:09;;;;;;;6.35;3.95;;;-11.60;79.10;;;;;;4352019;32;20085;-61
2021/03/13 01:14:35;;;;;;;6.18;4.25;;;-11.60;79.20;;;;;;4351920;32;20085;-59
2021/03/13 01:17:02;;;;;;;6.82;3.62;;;-11.70;79.50;;;;;;4338924;32;20093;-60
2021/03/13 01:19:28;;;;;;;6.18;4.00;;;-11.70;79.90;;;;;;4336258;32;20195;-60
2021/03/13 01:21:54;;;;;;;6.25;3.78;;;-11.70;80.30;;;;;;4312197;32;20090;-59
2021/03/13 01:24:21;;;;;;;5.28;3.47;;;-11.70;80.40;;;;;;4336362;32;20077;-59
2021/03/13 01:26:47;;;;;;;5.97;3.67;;;-11.70;80.50;;;;;;4324884;32;20079;-59
2021/03/13 01:29:13;;;;;;;6.65;3.97;;;-11.70;80.90;;;;;;4348664;32;20093;-60
2021/03/13 01:31:39;;;;;;;6.43;3.83;;;-11.80;80.50;;;;;;4324044;32;20505;-59
2021/03/13 01:34:06;;;;;;;6.00;3.83;;;-11.80;81.20;;;;;;4345040;32;20539;-60
2021/03/13 01:36:32;;;;;;;7.32;3.67;;;-11.70;81.00;;;;;;4348760;32;20074;-60
2021/03/13 01:38:58;;;;;;;5.28;3.37;;;-11.80;81.10;;;;;;4324297;32;20074;-58
2021/03/13 01:41:25;;;;;;;5.62;3.55;;;-11.70;81.30;;;;;;4336216;32;20051;-60
2021/03/13 01:43:51;;;;;;;5.55;3.80;;;-11.70;81.30;;;;;;4336206;32;20175;-60
2021/03/13 01:46:17;;;;;;;5.85;3.87;;;-11.80;81.40;;;;;;4348097;32;20070;-59
2021/03/13 01:48:49;;;;;;;5.70;3.80;;;-11.80;81.70;;;;;;4318436;32;20106;-59
2021/03/13 01:51:16;;;;;;;5.37;3.53;;;-11.80;81.70;;;;;;4324641;32;20081;-60
2021/03/13 01:53:43;;;;;;;8.85;5.28;;;-11.80;81.80;;;;;;4323933;32;20066;-59
2021/03/13 01:56:09;;;;;;;6.65;3.97;;;-11.80;81.60;;;;;;4328681;32;20094;-59
2021/03/13 01:58:35;;;;;;;6.55;4.22;;;-11.80;81.90;;;;;;4347875;32;20525;-59
2021/03/13 02:01:01;;;;;;;5.95;3.72;;;-11.70;82.00;;;;;;4362015;32;20497;-59
2021/03/13 02:03:27;;;;;;;7.87;4.32;;;-11.70;82.00;;;;;;4347952;32;20094;-60
2021/03/13 02:05:54;;;;;;;7.28;4.00;;;-11.80;82.00;;;;;;4360422;32;20079;-60
2021/03/13 02:08:44;;;;;;;6.85;4.30;;;-11.90;82.10;;;;;;4336343;32;20070;-58
2021/03/13 02:11:49;;;;;;;5.22;3.83;;;-11.90;82.30;;;;;;4361185;32;20524;-59
2021/03/13 02:15:16;;;;;;;6.20;3.70;;;-11.80;82.50;;;;;;4314230;32;20055;-59
2021/03/13 02:17:56;;;;;;;6.40;3.85;;;-11.70;82.60;;;;;;4323089;32;20175;-59
2021/03/13 02:20:59;;;;;;;5.65;3.72;;;-11.70;82.60;;;;;;4324045;32;20464;-59
2021/03/13 02:23:25;;;;;;;7.43;4.15;;;-11.70;82.60;;;;;;4336404;32;20076;-60
2021/03/13 02:26:22;;;;;;;6.45;3.97;;;-11.70;82.80;;;;;;4335315;32;20074;-59
2021/03/13 02:29:19;;;;;;;6.72;3.62;;;-11.80;82.70;;;;;;4335701;32;20074;-59
2021/03/13 02:31:49;;;;;;;6.35;4.18;;;-11.80;83.20;;;;;;4335593;32;20158;-60
2021/03/13 02:34:23;;;;;;;6.40;4.18;;;-11.80;83.10;;;;;;4335646;32;20066;-60
2021/03/13 02:36:50;;;;;;;6.90;4.15;;;-11.70;83.30;;;;;;4339006;32;20089;-62
2021/03/13 02:39:17;;;;;;;6.55;4.10;;;-11.80;83.10;;;;;;4338414;32;20069;-59
2021/03/13 02:41:47;;;;;;;7.05;4.30;;;-11.80;83.10;;;;;;4338596;32;20153;-59
2021/03/13 02:44:14;;;;;;;7.37;3.65;;;-11.90;83.50;;;;;;4338744;32;20094;-59
2021/03/13 02:46:47;;;;;;;6.78;4.05;;;-11.90;83.50;;;;;;4338019;32;20084;-60
2021/03/13 02:49:13;;;;;;;5.95;4.07;;;-11.90;83.90;;;;;;4338154;32;20070;-61
2021/03/13 02:51:40;;;;;;;6.82;4.05;;;-11.90;83.90;;;;;;4303777;32;20089;-60
2021/03/13 02:54:07;;;;;;;6.35;3.97;;;-11.80;84.00;;;;;;4323504;32;20094;-59
2021/03/13 02:56:35;;;;;;;7.47;3.45;;;-11.90;84.00;;;;;;4323420;32;20078;-61
2021/03/13 02:59:01;;;;;;;6.90;4.10;;;-11.90;83.90;;;;;;4318942;32;20059;-60
2021/03/13 03:01:28;;;;;;;5.65;3.70;;;-11.90;84.40;;;;;;4328944;32;20509;-59
2021/03/13 03:03:54;;;;;;;7.47;3.80;;;-11.90;84.40;;;;;;4315413;32;20067;-59
2021/03/13 03:06:21;;;;;;;6.45;4.22;;;-11.80;84.30;;;;;;4327024;32;20086;-60
2021/03/13 03:08:48;;;;;;;7.75;4.72;;;-11.70;84.20;;;;;;4311375;32;20114;-59
2021/03/13 03:11:19;;;;;;;5.43;3.55;;;-11.80;84.00;;;;;;4311230;32;20512;-59
2021/03/13 03:13:47;;;;;;;6.47;4.00;;;-11.80;84.20;;;;;;4347605;32;20082;-59
2021/03/13 03:16:13;;;;;;;7.47;4.07;;;-11.70;84.20;;;;;;4335929;32;20143;-60
2021/03/13 03:18:39;;;;;;;6.57;3.78;;;-11.80;84.10;;;;;;4310852;32;20063;-59
2021/03/13 03:21:05;;;;;;;6.82;4.05;;;-11.80;84.20;;;;;;4345137;32;20085;-59
2021/03/13 03:23:32;;;;;;;5.50;4.12;;;-11.80;84.40;;;;;;4323110;32;20059;-59
2021/03/13 03:25:58;;;;;;;6.40;4.00;;;-12.00;84.60;;;;;;4322898;32;20155;-59
2021/03/13 03:28:27;;;;;;;6.00;4.03;;;-12.00;84.70;;;;;;4366076;32;20462;-59
2021/03/13 03:30:56;;;;;;;5.70;3.47;;;-12.10;84.60;;;;;;4354576;32;20058;-60
2021/03/13 03:33:23;;;;;;;6.57;3.80;;;-12.20;85.10;;;;;;4326057;32;20457;-61
2021/03/13 03:35:50;;;;;;;6.00;3.50;;;-12.10;84.50;;;;;;4325701;32;20077;-59
2021/03/13 03:38:17;;;;;;;6.78;3.95;;;-12.30;84.50;;;;;;4326082;32;20071;-59
2021/03/13 03:40:44;;;;;;;7.07;4.03;;;-12.30;84.60;;;;;;4313989;32;20090;-61
2021/03/13 03:43:14;;;;;;;6.53;3.90;;;-12.40;84.50;;;;;;4315353;32;20059;-60
2021/03/13 03:45:41;;;;;;;6.15;3.67;;;-12.50;84.90;;;;;;4352103;32;20074;-60
2021/03/13 03:48:10;;;;;;;6.20;3.95;;;-12.50;84.90;;;;;;4327921;32;20531;-60
2021/03/13 03:50:37;;;;;;;6.53;3.87;;;-12.40;84.90;;;;;;4326905;32;20070;-60
2021/03/13 03:53:06;;;;;;;8.45;3.97;;;-12.20;84.60;;;;;;4329465;32;20075;-60
2021/03/13 03:55:33;;;;;;;5.68;3.70;;;-12.10;84.50;;;;;;4326720;32;20070;-59
2021/03/13 03:57:59;;;;;;;6.35;4.68;;;-12.10;84.60;;;;;;4321501;32;20071;-60
2021/03/13 04:00:25;;;;;;;5.70;3.62;;;-12.10;84.50;;;;;;4326064;32;20133;-60
2021/03/13 04:02:56;;;;;;;5.85;3.75;;;-12.00;84.40;;;;;;4349801;32;20585;-60
2021/03/13 04:05:22;;;;;;;6.85;3.80;;;-11.80;84.50;;;;;;4325447;32;20089;-60
2021/03/13 04:07:49;;;;;;;5.93;3.90;;;-11.80;84.20;;;;;;4313641;32;20441;-61
2021/03/13 04:10:16;;;;;;;6.20;3.80;;;-11.60;83.90;;;;;;4338054;32;20178;-59
2021/03/13 04:12:42;;;;;;;4.72;3.47;;;-11.60;83.40;;;;;;4325221;32;20081;-60
2021/03/13 04:15:12;;;;;;;6.07;3.55;;;-11.60;82.90;;;;;;4313743;32;20167;-60
2021/03/13 04:17:39;;;;;;;6.57;3.83;;;-11.50;82.70;;;;;;4325955;32;20078;-60
2021/03/13 04:20:09;;;;;;;4.97;3.30;;;-11.40;82.30;;;;;;4337978;32;20070;-58
2021/03/13 04:22:38;;;;;;;5.72;3.67;;;-11.50;81.90;;;;;;4313130;32;20149;-60
2021/03/13 04:25:06;;;;;;;5.43;3.50;;;-11.50;81.50;;;;;;4313619;32;20062;-60
2021/03/13 04:27:33;;;;;;;6.87;3.72;;;-11.40;81.30;;;;;;4349308;32;20073;-60
2021/03/13 04:30:00;;;;;;;5.87;3.60;;;-11.30;80.90;;;;;;4325382;32;20067;-61
2021/03/13 04:32:26;;;;;;;5.22;3.70;;;-11.30;80.40;;;;;;4325228;32;20070;-59
2021/03/13 04:34:52;;;;;;;5.90;3.83;;;-11.50;80.20;;;;;;4324714;32;20114;-61
2021/03/13 04:37:19;;;;;;;6.40;3.83;;;-11.40;80.10;;;;;;4345830;32;20163;-60
2021/03/13 04:39:45;;;;;;;5.60;3.17;;;-11.40;79.70;;;;;;4314406;32;20066;-60
2021/03/13 04:42:12;;;;;;;6.00;3.55;;;-11.30;80.80;;;;;;4324983;32;20059;-60
2021/03/13 04:44:38;;;;;;;6.40;3.70;;;-11.30;79.00;;;;;;4312924;32;20063;-60
2021/03/13 04:47:05;;;;;;;4.97;3.20;;;-11.20;78.80;;;;;;4336945;32;20456;-60
2021/03/13 04:49:31;;;;;;;6.60;3.95;;;-11.10;78.30;;;;;;4330879;32;20062;-59
2021/03/13 04:51:59;;;;;;;7.87;3.70;;;-11.20;78.10;;;;;;4343333;32;20202;-60
2021/03/13 04:54:28;;;;;;;4.57;2.97;;;-11.10;77.70;;;;;;4337848;32;20528;-59
2021/03/13 04:56:55;;;;;;;5.22;3.45;;;-11.10;77.20;;;;;;4325053;32;20138;-59
2021/03/13 04:59:21;;;;;;;6.18;3.67;;;-11.20;77.00;;;;;;4337353;32;20077;-59
2021/03/13 05:01:48;;;;;;;6.78;3.67;;;-11.10;76.80;;;;;;4336734;32;20070;-59
2021/03/13 05:04:14;;;;;;;4.90;3.30;;;-11.10;77.00;;;;;;4324274;32;20070;-59
2021/03/13 05:06:41;;;;;;;6.28;3.42;;;-11.10;76.50;;;;;;4312261;32;20517;-59
2021/03/13 05:09:07;;;;;;;6.43;3.97;;;-11.00;76.40;;;;;;4324607;32;20086;-60
2021/03/13 05:11:34;;;;;;;5.55;3.60;;;-11.10;76.10;;;;;;4337088;32;20082;-60
2021/03/13 05:14:01;;;;;;;6.00;3.60;;;-11.10;75.80;;;;;;4337270;32;20094;-60
2021/03/13 05:16:28;;;;;;;5.95;3.70;;;-10.90;75.60;;;;;;4312787;32;20070;-59
2021/03/13 05:18:55;;;;;;;5.45;3.53;;;-11.00;75.20;;;;;;4320150;32;20092;-59
2021/03/13 05:21:22;;;;;;;6.68;3.60;;;-9.50;71.20;;;;;;4324607;32;20078;-60
2021/03/13 05:23:50;;;;;;;5.60;3.70;;;-9.40;67.90;;;;;;4324508;32;20505;-59
2021/03/13 05:26:16;;;;;;;6.32;4.15;;;-9.30;66.60;;;;;;4324931;32;20065;-59
2021/03/13 05:28:43;;;;;;;7.15;3.60;;;-9.30;66.60;;;;;;4323756;32;20153;-60
2021/03/13 05:31:09;;;;;;;6.45;3.97;;;-8.80;65.20;;;;;;4336592;32;20160;-60
2021/03/13 05:33:35;;;;;;;6.93;3.80;;;-9.20;64.70;;;;;;4336048;32;20106;-60
2021/03/13 05:36:02;;;;;;;7.07;4.12;;;-9.40;65.30;;;;;;4336025;32;20071;-60
2021/03/13 05:38:28;;;;;;;5.85;3.97;;;-9.60;66.40;;;;;;4323951;32;20426;-60
2021/03/13 05:40:56;;;;;;;7.68;4.10;;;-9.10;65.80;;;;;;4336144;32;20079;-58
2021/03/13 05:43:22;;;;;;;6.78;4.57;;;-9.30;64.00;;;;;;4312260;32;20098;-59
2021/03/13 05:45:49;;;;;;;4.87;3.50;;;-8.50;61.60;;;;;;4335378;32;20148;-59
2021/03/13 05:48:15;;;;;;;7.62;4.60;;;-8.60;61.80;;;;;;4362097;32;20150;-60
2021/03/13 05:50:41;;;;;;;6.35;4.32;;;-8.80;60.40;;;;;;4324112;32;20074;-60
2021/03/13 05:53:10;;;;;;;7.30;4.65;;;-9.30;62.20;;;;;;4324336;32;20074;-61
2021/03/13 05:55:37;;;;;;;7.10;4.53;;;-9.50;64.20;;;;;;4313062;32;20062;-60
2021/03/13 05:58:06;;;;;;;6.28;4.75;;;-9.50;64.40;;;;;;4323767;32;20603;-60
2021/03/13 06:00:35;;;;;;;7.07;4.60;;;-9.50;64.70;;;;;;4336050;32;20504;-61
2021/03/13 06:03:02;;;;;;;7.65;3.97;;;-9.30;63.80;;;;;;4323140;32;20545;-59
2021/03/13 06:05:28;;;;;;;6.45;4.43;;;-9.10;63.40;;;;;;4346772;33;20098;-60
2021/03/13 06:07:55;;;;;;;7.82;4.50;;;-9.40;62.70;;;;;;4341527;33;20071;-60
2021/03/13 06:10:22;;;;;;;7.30;4.00;;;-8.80;63.40;;;;;;4332487;33;20151;-59
2021/03/13 06:12:48;;;;;;;6.40;4.55;;;-8.70;62.30;;;;;;4342618;33;20063;-59
2021/03/13 06:15:16;;;;;;;7.18;4.60;;;-9.10;60.40;;;;;;4343469;33;20094;-59
2021/03/13 06:17:57;;;;;;;7.15;4.15;;;-9.10;62.30;;;;;;4324350;33;20074;-60
2021/03/13 06:20:43;;;;;;;6.12;4.30;;;-8.80;61.20;;;;;;4322356;33;20086;-59
2021/03/13 06:23:09;;;;;;;7.10;4.55;;;-9.80;64.70;;;;;;4347577;33;20522;-59
2021/03/13 06:25:39;;;;;;;6.07;4.62;;;-9.90;66.40;;;;;;4342922;33;20095;-59
2021/03/13 06:28:13;;;;;;;6.18;3.55;;;-9.80;65.90;;;;;;4333942;33;20148;-60
2021/03/13 06:30:46;;;;;;;6.40;3.78;;;-9.40;66.30;;;;;;4321408;33;20089;-60
2021/03/13 06:33:31;;;;;;;7.30;4.28;;;-9.60;66.30;;;;;;4320907;33;20142;-59
2021/03/13 06:36:03;;;;;;;8.13;4.65;;;-9.60;66.40;;;;;;4320646;33;20075;-60
2021/03/13 06:38:31;;;;;;;6.62;4.57;;;-9.40;66.20;;;;;;4309446;33;20162;-59
2021/03/13 06:41:12;;;;;;;7.80;4.72;;;-9.50;65.80;;;;;;4297006;33;20063;-60
2021/03/13 06:43:39;;;;;;;7.25;3.47;;;-9.40;65.50;;;;;;4334358;33;20147;-58
2021/03/13 06:46:10;;;;;;;8.07;3.83;;;-9.50;65.40;;;;;;4311533;33;20229;-60
2021/03/13 06:48:53;;;;;;;5.87;3.40;;;-9.60;66.00;;;;;;4333541;32;20109;-60
2021/03/13 06:51:39;;;;;;;5.65;3.67;;;-9.50;66.00;;;;;;4310925;33;20070;-59
2021/03/13 06:54:12;;;;;;;5.80;3.80;;;-9.60;64.70;;;;;;4309819;33;20063;-59
2021/03/13 06:56:47;;;;;;;7.25;3.92;;;-9.70;65.10;;;;;;4320471;32;20518;-61
2021/03/13 06:59:33;;;;;;;8.20;4.20;;;-9.70;65.00;;;;;;4330108;33;20156;-58
2021/03/13 07:02:10;;;;;;;6.25;4.00;;;-9.60;64.30;;;;;;4309780;33;20090;-60
2021/03/13 07:04:42;;;;;;;6.85;3.85;;;-9.60;64.10;;;;;;4310830;32;20149;-60
2021/03/13 07:07:39;;;;;;;7.07;3.90;;;-9.60;63.80;;;;;;4323312;32;20075;-59
2021/03/13 07:10:09;;;;;;;5.57;3.80;;;-9.70;63.60;;;;;;4334415;32;20078;-59
2021/03/13 07:12:40;;;;;;;7.45;4.20;;;-9.70;64.20;;;;;;4323149;32;20069;-59
2021/03/13 07:15:18;;;;;;;7.20;3.80;;;-9.50;64.30;;;;;;4323475;32;20075;-61
2021/03/13 07:17:48;;;;;;;6.97;4.10;;;-9.50;64.40;;;;;;4347798;32;20081;-60
2021/03/13 07:20:21;;;;;;;7.97;4.18;;;-9.30;63.90;;;;;;4336223;32;20130;-59
2021/03/13 07:22:56;;;;;;;8.50;4.03;;;-9.40;63.70;;;;;;4336779;32;20055;-60
2021/03/13 07:25:23;;;;;;;7.43;3.75;;;-9.20;63.50;;;;;;4324577;32;20511;-60
2021/03/13 07:28:02;;;;;;;6.22;4.35;;;-9.10;63.20;;;;;;4346674;32;20507;-59
2021/03/13 07:30:29;;;;;;;7.15;3.95;;;-9.10;62.80;;;;;;4329727;32;20070;-60
2021/03/13 07:33:00;;;;;;;7.18;3.67;;;-8.80;62.40;;;;;;4346777;32;20497;-59
2021/03/13 07:35:28;;;;;;;4.93;3.20;;;-8.90;62.50;;;;;;4335429;32;20084;-59
2021/03/13 07:37:56;;;;;;;5.43;3.28;;;-8.60;62.90;;;;;;4322869;32;20497;-59
2021/03/13 07:40:23;;;;;;;5.72;3.90;;;-8.30;61.90;;;;;;4347292;32;20078;-59
2021/03/13 07:42:50;;;;;;;7.37;3.78;;;-8.40;61.80;;;;;;4322984;32;20071;-60
2021/03/13 07:45:18;;;;;;;7.03;4.10;;;-8.30;62.40;;;;;;4335378;32;20078;-59
2021/03/13 07:47:44;;;;;;;6.75;3.92;;;-8.30;62.40;;;;;;4312036;32;20066;-60
2021/03/13 07:50:15;;;;;;;6.85;3.92;;;-8.10;63.60;;;;;;4347038;32;20074;-60
2021/03/13 07:52:43;;;;;;;6.47;3.87;;;-8.10;63.10;;;;;;4333142;32;20460;-59
2021/03/13 07:55:14;;;;;;;8.38;4.30;;;-7.80;62.90;;;;;;4323090;32;20074;-60
2021/03/13 07:57:49;;;;;;;7.57;3.92;;;-7.60;62.30;;;;;;4323146;32;20071;-60
2021/03/13 08:00:16;;;;;;;9.07;3.97;;;-7.60;62.70;;;;;;4323207;32;20070;-59
2021/03/13 08:02:46;;;;;;;6.87;4.25;;;-7.50;62.10;;;;;;4323211;32;20074;-59
2021/03/13 08:05:17;;;;;;;6.20;3.90;;;-7.70;63.00;;;;;;4326424;32;20074;-60
2021/03/13 08:08:03;;;;;;;7.37;3.67;;;-7.90;63.20;;;;;;4323093;32;20632;-59
2021/03/13 08:10:51;;;;;;;6.43;3.75;;;-8.10;63.60;;;;;;4327404;32;20063;-59
2021/03/13 08:13:29;;;;;;;6.65;3.40;;;-7.90;63.00;;;;;;4356513;32;20150;-59
2021/03/13 08:16:04;;;;;;;5.95;3.40;;;-7.80;62.80;;;;;;4352908;32;20603;-60
2021/03/13 08:18:47;;;;;;;6.07;3.50;;;-8.10;62.90;;;;;;4343274;32;20078;-59
2021/03/13 08:21:20;;;;;;;8.43;4.07;;;-7.90;63.70;;;;;;4326019;32;20075;-60
2021/03/13 08:23:54;;;;;;;6.97;4.32;;;-8.20;63.10;;;;;;4337328;32;20081;-59
2021/03/13 08:26:44;;;;;;;6.53;3.62;;;-8.20;63.70;;;;;;4325473;32;20079;-62
2021/03/13 08:29:11;;;;;;;7.25;3.35;;;-8.10;64.10;;;;;;4363175;32;20070;-59
2021/03/13 08:31:39;;;;;;;6.32;3.53;;;-7.80;63.90;;;;;;4325426;32;20112;-59
2021/03/13 08:34:06;;;;;;;5.87;3.65;;;-7.90;62.90;;;;;;4325188;32;20101;-60
2021/03/13 08:36:49;;;;;;;5.37;3.90;;;-7.90;63.10;;;;;;4336544;32;20113;-63
2021/03/13 08:39:23;;;;;;;5.78;4.03;;;-7.90;63.10;;;;;;4338734;32;20148;-59
2021/03/13 08:41:51;;;;;;;6.68;3.70;;;-7.90;62.30;;;;;;4326722;32;20093;-61
2021/03/13 08:44:37;;;;;;;6.05;4.03;;;-7.40;62.20;;;;;;4337705;32;20052;-60
2021/03/13 08:47:08;;;;;;;7.12;3.78;;;-7.50;61.90;;;;;;4338405;32;20070;-59
2021/03/13 08:49:47;;;;;;;6.40;4.00;;;-8.00;62.20;;;;;;4349400;32;20077;-60
2021/03/13 08:52:19;;;;;;;5.50;3.33;;;-7.50;63.20;;;;;;4323130;32;20073;-59
2021/03/13 08:54:47;;;;;;;6.18;3.58;;;-7.30;62.60;;;;;;4340520;32;20090;-59
2021/03/13 08:57:15;;;;;;;5.32;3.35;;;-7.60;62.40;;;;;;4338968;32;20153;-59
2021/03/13 08:59:58;;;;;;;7.00;4.62;;;-7.50;62.70;;;;;;4324904;32;20473;-59
2021/03/13 09:02:33;;;;;;;6.55;3.80;;;-7.60;63.10;;;;;;4336415;32;20097;-60
2021/03/13 09:05:21;;;;;;;5.37;3.33;;;-7.50;61.40;;;;;;4337240;32;20109;-59
2021/03/13 09:07:50;;;;;;;5.93;3.55;;;-7.80;62.10;;;;;;4350395;32;20529;-59
2021/03/13 09:10:16;;;;;;;6.40;3.30;;;-7.30;62.00;;;;;;4325408;32;20114;-59
2021/03/13 09:12:44;;;;;;;5.57;3.60;;;-7.00;60.50;;;;;;4326031;32;20066;-59
2021/03/13 09:15:12;;;;;;;5.82;4.15;;;-7.30;60.30;;;;;;4340899;32;20247;-59
2021/03/13 09:17:38;;;;;;;5.65;3.72;;;-7.30;61.20;;;;;;4316768;32;20086;-60
2021/03/13 09:20:10;;;;;;;9.07;3.95;;;-7.40;62.10;;;;;;4312509;32;20458;-59
2021/03/13 09:22:44;;;;;;;7.72;3.72;;;-7.20;61.00;;;;;;4337324;32;20063;-60
2021/03/13 09:25:20;;;;;;;6.90;4.28;;;-7.40;61.20;;;;;;4313504;32;20094;-59
2021/03/13 09:27:50;;;;;;;5.45;3.37;;;-7.40;62.00;;;;;;4331350;32;20465;-60
2021/03/13 09:30:21;;;;;;;5.72;3.87;;;-7.60;62.00;;;;;;4312973;32;20074;-59
2021/03/13 09:32:49;;;;;;;5.00;3.65;;;-7.10;61.20;;;;;;4328217;32;20066;-59
2021/03/13 09:35:17;;;;;;;6.87;3.97;;;-7.10;61.10;;;;;;4339838;32;20081;-60
2021/03/13 09:37:43;;;;;;;6.80;4.55;;;-7.00;60.70;;;;;;4341514;32;20497;-60
2021/03/13 09:40:17;;;;;;;5.30;3.83;;;-6.90;61.70;;;;;;4350992;32;20154;-60
2021/03/13 09:42:46;;;;;;;6.78;3.95;;;-7.10;60.40;;;;;;4354217;32;20076;-59
2021/03/13 09:45:24;;;;;;;6.10;4.12;;;-6.90;60.50;;;;;;4327111;32;20093;-59
2021/03/13 09:47:58;;;;;;;6.28;4.70;;;-6.60;60.00;;;;;;4334969;32;20517;-60
2021/03/13 09:50:33;;;;;;;6.12;3.72;;;-6.40;60.20;;;;;;4312255;32;20517;-59
2021/03/13 09:53:01;;;;;;;5.72;3.90;;;-6.80;60.30;;;;;;4324632;32;20093;-60
2021/03/13 09:55:28;;;;;;;6.22;4.50;;;-6.90;60.60;;;;;;4312756;32;20067;-60
2021/03/13 09:57:59;;;;;;;6.43;4.72;;;-6.30;59.30;;;;;;4349029;32;20070;-60
2021/03/13 10:00:33;;;;;;;6.65;3.65;;;-6.60;58.50;;;;;;4313368;32;20074;-59
2021/03/13 10:03:01;;;;;;;7.65;4.30;;;-6.60;59.80;;;;;;4346602;32;20081;-60
2021/03/13 10:05:29;;;;;;;6.95;3.97;;;-6.50;59.10;;;;;;4334969;33;20126;-59
2021/03/13 10:07:57;;;;;;;6.30;3.70;;;-6.70;58.80;;;;;;4321190;33;20098;-59
2021/03/13 10:10:26;;;;;;;7.12;3.95;;;-6.50;59.80;;;;;;4309031;33;20095;-61
2021/03/13 10:12:55;;;;;;;9.35;4.20;;;-6.50;59.70;;;;;;4309587;33;20067;-59
2021/03/13 10:15:30;;;;;;;6.37;4.00;;;-6.20;59.70;;;;;;4309278;33;20069;-59
2021/03/13 10:18:16;;;;;;;7.50;3.83;;;-6.00;58.90;;;;;;4323717;33;20075;-60
2021/03/13 10:20:45;;;;;;;6.53;3.75;;;-6.10;59.20;;;;;;4333224;33;20082;-61
2021/03/13 10:23:20;;;;;;;5.87;3.30;;;-6.40;59.50;;;;;;4333393;33;20564;-60
2021/03/13 10:25:57;;;;;;;5.90;4.37;;;-6.20;60.40;;;;;;4321387;33;20066;-60
2021/03/13 10:28:28;;;;;;;6.43;4.18;;;-6.00;60.40;;;;;;4343364;33;20097;-61
2021/03/13 10:31:26;;;;;;;5.43;3.78;;;-5.80;60.00;;;;;;4333130;33;20078;-59
2021/03/13 10:33:52;;;;;;;6.20;3.67;;;-6.20;60.00;;;;;;4309950;33;20509;-59
2021/03/13 10:36:21;;;;;;;6.45;3.75;;;-6.00;60.30;;;;;;4321422;33;20077;-60
2021/03/13 10:38:52;;;;;;;5.43;3.90;;;-6.10;60.90;;;;;;4297236;33;20604;-61
2021/03/13 10:41:23;;;;;;;5.10;3.78;;;-6.10;60.60;;;;;;4309892;33;20071;-60
2021/03/13 10:43:52;;;;;;;6.50;3.97;;;-6.50;60.80;;;;;;4320938;33;20063;-59
2021/03/13 10:46:22;;;;;;;6.72;3.50;;;-6.30;60.80;;;;;;4320789;33;20150;-60
2021/03/13 10:48:55;;;;;;;8.05;3.92;;;-5.60;59.70;;;;;;4331020;32;20074;-59
2021/03/13 10:51:25;;;;;;;7.05;3.65;;;-5.70;58.60;;;;;;4335364;32;20081;-60
2021/03/13 10:53:52;;;;;;;7.12;4.15;;;-6.00;60.40;;;;;;4335933;32;20098;-58
2021/03/13 10:56:19;;;;;;;6.40;3.80;;;-6.10;60.40;;;;;;4323320;32;20175;-60
2021/03/13 10:58:58;;;;;;;5.32;4.05;;;-6.00;61.00;;;;;;4320317;33;20175;-61
2021/03/13 11:01:25;;;;;;;7.15;4.78;;;-6.10;60.80;;;;;;4321577;33;20070;-61
2021/03/13 11:03:53;;;;;;;6.65;4.70;;;-5.60;59.90;;;;;;4332396;33;20101;-60
2021/03/13 11:06:27;;;;;;;8.30;5.15;;;-5.70;59.80;;;;;;4306252;33;20110;-60
2021/03/13 11:08:56;;;;;;;7.95;4.95;;;-5.70;59.30;;;;;;4308455;33;20106;-60
2021/03/13 11:11:22;;;;;;;8.45;5.93;;;-5.90;59.80;;;;;;4308706;33;20086;-60
2021/03/13 11:13:48;;;;;;;9.35;5.90;;;-6.10;60.10;;;;;;4332641;33;20075;-60
2021/03/13 11:16:15;;;;;;;7.45;5.18;;;-6.10;60.10;;;;;;4301651;32;20102;-59
2021/03/13 11:18:41;;;;;;;8.00;5.55;;;-5.70;60.20;;;;;;4312997;33;20087;-59
2021/03/13 11:21:07;;;;;;;8.00;5.85;;;-5.70;59.40;;;;;;4332972;33;20497;-60
2021/03/13 11:23:34;;;;;;;8.20;4.85;;;-5.40;59.70;;;;;;4321661;33;20194;-60
2021/03/13 11:26:01;;;;;;;8.00;6.03;;;-5.70;59.40;;;;;;4308949;33;20185;-61
2021/03/13 11:28:27;;;;;;;6.45;4.05;;;-5.60;59.00;;;;;;4324966;33;20063;-59
2021/03/13 11:30:54;;;;;;;7.25;4.47;;;-5.80;59.50;;;;;;4314775;33;20484;-60
2021/03/13 11:33:20;;;;;;;5.72;4.18;;;-5.70;59.50;;;;;;4339467;32;20070;-60
2021/03/13 11:35:47;;;;;;;4.80;3.25;;;-5.50;59.20;;;;;;4336636;32;20065;-59
2021/03/13 11:38:13;;;;;;;6.62;3.65;;;-5.40;58.70;;;;;;4324673;32;20078;-61
2021/03/13 11:40:40;;;;;;;7.43;3.55;;;-6.00;59.10;;;;;;4335676;32;20078;-60
2021/03/13 11:43:07;;;;;;;4.75;3.33;;;-5.90;60.10;;;;;;4324425;32;20061;-60
2021/03/13 11:45:33;;;;;;;3.97;2.65;;;-6.00;59.50;;;;;;4338220;32;20501;-61
2021/03/13 11:47:59;;;;;;;4.78;2.90;;;-5.70;59.90;;;;;;4335474;33;20062;-60
2021/03/13 11:50:27;;;;;;;4.95;2.83;;;-5.90;60.10;;;;;;4311899;33;20140;-61
2021/03/13 11:52:55;;;;;;;4.85;2.95;;;-5.90;59.70;;;;;;4343510;32;20082;-60
2021/03/13 11:55:22;;;;;;;5.05;3.10;;;-5.60;59.90;;;;;;4338306;32;20074;-60
2021/03/13 11:57:48;;;;;;;4.68;2.90;;;-6.00;60.40;;;;;;4323268;33;20551;-59
2021/03/13 12:00:15;;;;;;;5.93;3.00;;;-5.80;60.10;;;;;;4348950;33;20510;-60
2021/03/13 12:02:42;;;;;;;4.60;2.87;;;-5.90;60.00;;;;;;4314131;32;20445;-60
2021/03/13 12:05:09;;;;;;;5.20;3.30;;;-5.70;59.50;;;;;;4310788;33;20098;-60
2021/03/13 12:07:36;;;;;;;4.82;3.10;;;-5.70;59.10;;;;;;4311252;33;20090;-60
2021/03/13 12:10:08;;;;;;;4.60;3.37;;;-5.70;59.70;;;;;;4311646;33;20105;-59
2021/03/13 12:12:34;;;;;;;4.28;2.80;;;-5.60;59.50;;;;;;4311233;33;20069;-60
2021/03/13 12:15:01;;;;;;;5.72;2.97;;;-5.60;59.50;;;;;;4323203;33;20069;-60
2021/03/13 12:17:27;;;;;;;3.53;2.62;;;-5.70;59.00;;;;;;4335037;33;20549;-60
2021/03/13 12:19:53;;;;;;;4.18;3.12;;;-5.70;59.10;;;;;;4339939;33;20067;-59
2021/03/13 12:22:21;;;;;;;4.90;3.25;;;-5.80;58.90;;;;;;4342148;33;20074;-60
2021/03/13 12:24:48;;;;;;;6.45;3.37;;;-5.90;59.60;;;;;;4325274;33;20081;-59
2021/03/13 12:27:15;;;;;;;5.10;3.03;;;-6.00;59.50;;;;;;4323307;33;20071;-60
2021/03/13 12:29:41;;;;;;;4.53;3.30;;;-6.00;59.80;;;;;;4335424;33;20074;-60
2021/03/13 12:32:07;;;;;;;4.62;2.87;;;-5.90;59.30;;;;;;4348213;32;20140;-63
2021/03/13 12:34:34;;;;;;;4.25;2.62;;;-5.60;58.90;;;;;;4310706;32;20094;-60
2021/03/13 12:37:00;;;;;;;4.65;3.10;;;-5.60;58.60;;;;;;4349650;32;20088;-60
2021/03/13 12:39:26;;;;;;;4.65;3.33;;;-5.70;58.80;;;;;;4337684;32;20492;-60
2021/03/13 12:41:53;;;;;;;5.07;2.92;;;-5.80;58.50;;;;;;4327153;32;20534;-60
2021/03/13 12:44:19;;;;;;;6.12;2.92;;;-5.80;58.80;;;;;;4350042;32;20062;-60
2021/03/13 12:46:46;;;;;;;4.47;3.20;;;-5.50;58.70;;;;;;4324376;32;20086;-60
2021/03/13 12:49:12;;;;;;;4.60;3.20;;;-5.60;58.60;;;;;;4322483;33;20084;-59
2021/03/13 12:51:39;;;;;;;5.82;3.10;;;-5.80;58.90;;;;;;4339179;33;20074;-60
2021/03/13 12:54:06;;;;;;;4.80;2.47;;;-5.80;59.00;;;;;;4323347;33;20095;-60
2021/03/13 12:56:32;;;;;;;5.00;3.17;;;-5.60;59.10;;;;;;4313830;33;20082;-60